首页
METAR-TAF:

METAR-TAF

机场 :

坦帕國際機場

坦帕, 佛罗里达州, 美国

纬度: 27-57-41N, 经度: 082-32-25W, 海拔: 8米

当前天气观测

该预报发布于40分钟前的22:53 UTC
风速3节,风向多变
温度 24°C
湿度 83%
气压 1016 hPa
能見度: 11.3公里
散云层高于5500英尺
散云层高于8500英尺
阴天层高于14000英尺
小雨

METAR: KTPA 032253Z VRB03KT 7SM -RA SCT055 SCT085 OVC140 24/21 A3000 RMK AO2 SLP158 P0002 T02440211

时间: 19:33 (23:33 UTC)

预报

该预报发布于2小时和33分钟前的21:00 UTC
预报有效从03日的 21点(UTC)到 04日的 24点(UTC)
风速7节,风向东转东南
能見度: 9.7公里
少量云层高于2000英尺, 积雨云.
多云层高于4000英尺
阴天层高于10000英尺
小阵雨, 附近有雷暴
短暂存在
从 03日的 21点(UTC)到 03日的 24点(UTC)
风速15节,风向多变,有时为25节阵风
能見度: 4.8公里
散云层高于2000英尺
阴天层高于3000英尺
阵雨
从 04日的 0300点(UTC)
风速4节,风向
能見度: 8.0公里
散云层高于2000英尺
阴天层高于5000英尺
阵雨
从 04日的 1500点(UTC)
风速6节,风向南转南东
能見度: 8.0公里
多云层高于2000英尺
阴天层高于4000英尺
阵雨
从 04日的 1800点(UTC)
风速7节,风向
能見度: 8.0公里
多云层高于2000英尺, 积雨云.
阴天层高于4000英尺
阵雨, 附近有雷暴

TAF: KTPA 032100Z 0321/0424 12007KT 6SM -SHRA VCTS FEW020CB BKN040 OVC100 TEMPO 0321/0324 VRB15G25KT 3SM SHRA SCT020 OVC030 FM040300 08004KT 5SM SHRA SCT020 OVC050 FM041500 15006KT 5SM SHRA BKN020 OVC040 FM041800 18007KT 5SM SHRA VCTS BKN020CB OVC040

超过4000个机场的气象观测和天气预报(METAR&TAF报告)。

可查询的气象台以黄色和红色小点在地图上表示。

将鼠标移到小点上方,可查看气象台名称。

然后点击查看天气观测和预报。

如需切换地图:点击带黑十字的绿色按钮放大地图;点击带横线的绿色按钮缩小地图;或者点击绿色箭头查看邻近地区的地图。


METAR-TAF: